sensor_id;sensor_type;location;lat;lon;timestamp;P1;P4;P2;P0;N10;N4;N25;N1;N05;TS
78734;SPS30;68057;52.126;5.426;2023-09-19T00:00:43;2.55;2.42;2.15;1.73;13.85;13.84;13.76;13.38;11.08;0.63
78734;SPS30;68057;52.126;5.426;2023-09-19T00:03:13;2.84;2.69;2.36;1.86;14.92;14.89;14.80;14.34;11.81;0.66
78734;SPS30;68057;52.126;5.426;2023-09-19T00:05:40;2.97;2.82;2.51;2.03;16.24;16.22;16.13;15.69;13.02;0.63
78734;SPS30;68057;52.126;5.426;2023-09-19T00:08:10;2.73;2.59;2.30;1.85;14.80;14.78;14.70;14.29;11.83;0.61
78734;SPS30;68057;52.126;5.426;2023-09-19T00:10:39;2.90;2.75;2.45;1.98;15.85;15.83;15.74;15.31;12.70;0.60
78734;SPS30;68057;52.126;5.426;2023-09-19T00:13:08;2.79;2.64;2.34;1.87;14.95;14.93;14.85;14.42;11.91;0.61
78734;SPS30;68057;52.126;5.426;2023-09-19T00:15:46;2.94;2.78;2.44;1.93;15.45;15.43;15.33;14.86;12.24;0.63
78734;SPS30;68057;52.126;5.426;2023-09-19T00:18:18;2.74;2.61;2.35;1.92;15.37;15.35;15.28;14.90;12.42;0.60
78734;SPS30;68057;52.126;5.426;2023-09-19T00:20:49;2.54;2.43;2.22;1.85;14.82;14.80;14.74;14.42;12.09;0.60
78734;SPS30;68057;52.126;5.426;2023-09-19T00:23:18;2.58;2.50;2.32;1.99;15.89;15.87;15.82;15.54;13.15;0.59
78734;SPS30;68057;52.126;5.426;2023-09-19T00:25:46;2.81;2.70;2.46;2.06;16.45;16.43;16.36;16.01;13.43;0.61
78734;SPS30;68057;52.126;5.426;2023-09-19T00:28:13;2.60;2.49;2.27;1.90;15.19;15.17;15.11;14.78;12.40;0.60
78734;SPS30;68057;52.126;5.426;2023-09-19T00:30:42;2.58;2.47;2.25;1.88;15.06;15.04;14.98;14.65;12.29;0.61
78734;SPS30;68057;52.126;5.426;2023-09-19T00:33:10;2.70;2.57;2.31;1.88;15.08;15.06;14.99;14.61;12.17;0.62
78734;SPS30;68057;52.126;5.426;2023-09-19T00:35:48;2.74;2.62;2.37;1.96;15.69;15.67;15.60;15.24;12.74;0.62
78734;SPS30;68057;52.126;5.426;2023-09-19T00:38:16;2.93;2.79;2.49;2.02;16.19;16.17;16.08;15.66;13.01;0.64
78734;SPS30;68057;52.126;5.426;2023-09-19T00:40:44;2.89;2.75;2.44;1.97;15.74;15.72;15.64;15.20;12.60;0.65
78734;SPS30;68057;52.126;5.426;2023-09-19T00:43:12;2.85;2.70;2.39;1.91;15.29;15.27;15.19;14.75;12.19;0.66
78734;SPS30;68057;52.126;5.426;2023-09-19T00:45:39;2.87;2.72;2.42;1.94;15.53;15.51;15.43;14.99;12.42;0.64
78734;SPS30;68057;52.126;5.426;2023-09-19T00:48:10;2.59;2.46;2.19;1.76;14.11;14.09;14.01;13.63;11.30;0.64
78734;SPS30;68057;52.126;5.426;2023-09-19T00:50:37;2.81;2.68;2.42;1.99;15.96;15.94;15.87;15.48;12.93;0.61
78734;SPS30;68057;52.126;5.426;2023-09-19T00:53:08;2.67;2.56;2.33;1.95;15.59;15.57;15.51;15.17;12.73;0.60
78734;SPS30;68057;52.126;5.426;2023-09-19T00:55:36;2.73;2.62;2.39;1.99;15.96;15.94;15.88;15.53;13.03;0.59
78734;SPS30;68057;52.126;5.426;2023-09-19T00:58:10;2.50;2.40;2.21;1.87;14.95;14.94;14.88;14.59;12.29;0.57
78734;SPS30;68057;52.126;5.426;2023-09-19T01:00:37;2.60;2.50;2.31;1.96;15.68;15.66;15.61;15.31;12.91;0.57
78734;SPS30;68057;52.126;5.426;2023-09-19T01:03:05;2.73;2.63;2.41;2.03;16.23;16.21;16.15;15.82;13.31;0.58
78734;SPS30;68057;52.126;5.426;2023-09-19T01:05:33;2.89;2.77;2.53;2.11;16.91;16.89;16.82;16.45;13.81;0.58
78734;SPS30;68057;52.126;5.426;2023-09-19T01:08:00;2.27;2.18;2.01;1.70;13.60;13.59;13.54;13.27;11.18;0.58
78734;SPS30;68057;52.126;5.426;2023-09-19T01:10:27;2.28;2.21;2.07;1.79;14.32;14.31;14.27;14.04;11.92;0.56
78734;SPS30;68057;52.126;5.426;2023-09-19T01:12:55;2.21;2.15;2.03;1.79;14.27;14.26;14.23;14.03;11.95;0.56
78734;SPS30;68057;52.126;5.426;2023-09-19T01:20:45;2.49;2.39;2.19;1.84;14.75;14.74;14.68;14.38;12.10;0.60
78734;SPS30;68057;52.126;5.426;2023-09-19T01:23:39;2.44;2.36;2.20;1.89;15.10;15.09;15.04;14.78;12.51;0.59
78734;SPS30;68057;52.126;5.426;2023-09-19T01:29:38;2.68;2.60;2.44;2.12;16.92;16.91;16.86;16.60;14.09;0.59
78734;SPS30;68057;52.126;5.426;2023-09-19T01:32:11;2.81;2.73;2.57;2.24;17.91;17.89;17.85;17.58;14.95;0.58
78734;SPS30;68057;52.126;5.426;2023-09-19T01:34:49;2.83;2.74;2.57;2.23;17.80;17.78;17.73;17.45;14.81;0.58
78734;SPS30;68057;52.126;5.426;2023-09-19T01:37:17;2.80;2.72;2.56;2.24;17.91;17.89;17.85;17.58;14.96;0.57
78734;SPS30;68057;52.126;5.426;2023-09-19T01:39:46;2.75;2.66;2.48;2.14;17.14;17.13;17.08;16.79;14.24;0.57
78734;SPS30;68057;52.126;5.426;2023-09-19T01:45:17;3.26;3.14;2.89;2.45;19.57;19.55;19.48;19.10;16.09;0.57
78734;SPS30;68057;52.126;5.426;2023-09-19T01:47:51;3.16;3.06;2.85;2.47;19.71;19.69;19.63;19.31;16.37;0.55
78734;SPS30;68057;52.126;5.426;2023-09-19T01:50:29;3.23;3.15;2.99;2.64;21.11;21.10;21.05;20.77;17.72;0.53
78734;SPS30;68057;52.126;5.426;2023-09-19T01:53:27;3.01;2.93;2.78;2.46;19.67;19.66;19.62;19.36;16.52;0.55
78734;SPS30;68057;52.126;5.426;2023-09-19T01:55:59;3.24;3.14;2.95;2.57;20.56;20.55;20.49;20.18;17.15;0.57
78734;SPS30;68057;52.126;5.426;2023-09-19T02:01:05;3.17;3.06;2.83;2.41;19.28;19.26;19.19;18.83;15.90;0.60
78734;SPS30;68057;52.126;5.426;2023-09-19T02:03:37;3.44;3.30;3.00;2.49;19.92;19.90;19.81;19.37;16.22;0.63
78734;SPS30;68057;52.126;5.426;2023-09-19T02:06:06;3.26;3.12;2.82;2.33;18.66;18.64;18.55;18.12;15.15;0.63
78734;SPS30;68057;52.126;5.426;2023-09-19T02:08:37;3.60;3.44;3.11;2.56;20.47;20.44;20.35;19.86;16.59;0.63
78734;SPS30;68057;52.126;5.426;2023-09-19T02:11:04;3.48;3.33;3.03;2.53;20.23;20.21;20.13;19.68;16.50;0.60
78734;SPS30;68057;52.126;5.426;2023-09-19T02:13:32;3.45;3.30;3.00;2.49;19.89;19.87;19.78;19.33;16.18;0.59
78734;SPS30;68057;52.126;5.426;2023-09-19T02:15:59;3.65;3.49;3.16;2.61;20.92;20.90;20.81;20.32;17.00;0.61
78734;SPS30;68057;52.126;5.426;2023-09-19T02:18:26;3.43;3.27;2.96;2.43;19.46;19.44;19.35;18.88;15.76;0.61
78734;SPS30;68057;52.126;5.426;2023-09-19T02:20:54;3.50;3.36;3.07;2.57;20.57;20.55;20.47;20.03;16.82;0.59
78734;SPS30;68057;52.126;5.426;2023-09-19T02:23:22;3.50;3.34;3.01;2.47;19.75;19.73;19.63;19.15;15.98;0.61
78734;SPS30;68057;52.126;5.426;2023-09-19T02:25:56;3.99;3.78;3.34;2.65;21.25;21.23;21.10;20.48;16.90;0.62
78734;SPS30;68057;52.126;5.426;2023-09-19T02:28:32;3.63;3.45;3.07;2.48;19.84;19.81;19.71;19.17;15.90;0.63
78734;SPS30;68057;52.126;5.426;2023-09-19T02:31:00;3.87;3.66;3.23;2.56;20.53;20.50;20.38;19.77;16.31;0.65
78734;SPS30;68057;52.126;5.426;2023-09-19T02:33:28;4.19;3.93;3.39;2.59;20.72;20.68;20.53;19.78;16.10;0.66
78734;SPS30;68057;52.126;5.426;2023-09-19T02:35:59;4.07;3.79;3.22;2.39;19.19;19.16;19.00;18.22;14.67;0.68
78734;SPS30;68057;52.126;5.426;2023-09-19T02:38:25;4.31;4.03;3.46;2.63;21.08;21.04;20.89;20.10;16.32;0.66
78734;SPS30;68057;52.126;5.426;2023-09-19T02:40:52;3.83;3.60;3.14;2.45;19.60;19.57;19.44;18.79;15.40;0.63
78734;SPS30;68057;52.126;5.426;2023-09-19T02:43:21;4.04;3.81;3.33;2.60;20.82;20.79;20.66;19.98;16.39;0.63
78734;SPS30;68057;52.126;5.426;2023-09-19T02:45:49;3.99;3.76;3.29;2.58;20.63;20.60;20.47;19.81;16.26;0.63
78734;SPS30;68057;52.126;5.426;2023-09-19T02:48:16;3.67;3.46;3.01;2.34;18.76;18.73;18.61;17.99;14.73;0.65
78734;SPS30;68057;52.126;5.426;2023-09-19T02:50:45;4.00;3.74;3.21;2.43;19.48;19.45;19.30;18.57;15.07;0.69
78734;SPS30;68057;52.126;5.426;2023-09-19T02:53:12;4.14;3.85;3.25;2.39;19.16;19.12;18.96;18.14;14.54;0.70
78734;SPS30;68057;52.126;5.426;2023-09-19T02:55:40;4.34;4.03;3.38;2.46;19.73;19.69;19.51;18.63;14.88;0.71
78734;SPS30;68057;52.126;5.426;2023-09-19T02:58:07;4.47;4.13;3.44;2.46;19.75;19.71;19.52;18.58;14.74;0.71
78734;SPS30;68057;52.126;5.426;2023-09-19T03:00:38;4.03;3.76;3.19;2.37;19.04;19.00;18.85;18.07;14.56;0.69
78734;SPS30;68057;52.126;5.426;2023-09-19T03:03:04;4.29;4.00;3.42;2.57;20.60;20.56;20.40;19.60;15.85;0.67
78734;SPS30;68057;52.126;5.426;2023-09-19T03:05:32;4.75;4.42;3.73;2.75;22.02;21.97;21.78;20.85;16.72;0.69
78734;SPS30;68057;52.126;5.426;2023-09-19T03:07:59;4.40;4.11;3.52;2.66;21.31;21.28;21.11;20.30;16.44;0.66
78734;SPS30;68057;52.126;5.426;2023-09-19T03:10:27;4.21;3.96;3.45;2.68;21.48;21.44;21.30;20.58;16.85;0.64
78734;SPS30;68057;52.126;5.426;2023-09-19T03:12:54;4.80;4.49;3.84;2.90;23.22;23.17;23.00;22.11;17.90;0.66
78734;SPS30;68057;52.126;5.426;2023-09-19T03:15:21;4.27;3.97;3.36;2.49;19.93;19.89;19.73;18.90;15.19;0.69
78734;SPS30;68057;52.126;5.426;2023-09-19T03:17:48;4.25;3.97;3.38;2.53;20.26;20.22;20.06;19.26;15.54;0.69
78734;SPS30;68057;52.126;5.426;2023-09-19T03:20:16;3.95;3.70;3.18;2.42;19.37;19.33;19.19;18.48;15.00;0.67
78734;SPS30;68057;52.126;5.426;2023-09-19T03:22:47;3.72;3.48;2.99;2.27;18.22;18.19;18.06;17.38;14.12;0.66
78734;SPS30;68057;52.126;5.426;2023-09-19T03:25:15;4.59;4.27;3.60;2.65;21.23;21.19;21.01;20.10;16.12;0.70
78734;SPS30;68057;52.126;5.426;2023-09-19T03:27:44;4.95;4.55;3.74;2.60;20.91;20.85;20.63;19.54;15.32;0.75
78734;SPS30;68057;52.126;5.426;2023-09-19T03:30:10;4.56;4.20;3.46;2.43;19.51;19.46;19.26;18.26;14.37;0.73
78734;SPS30;68057;52.126;5.426;2023-09-19T03:32:49;5.45;5.04;4.18;2.98;23.93;23.88;23.64;22.49;17.81;0.71
78734;SPS30;68057;52.126;5.426;2023-09-19T03:35:17;3.88;3.62;3.08;2.30;18.41;18.37;18.23;17.49;14.10;0.68
78734;SPS30;68057;52.126;5.426;2023-09-19T03:37:44;3.95;3.68;3.13;2.34;18.76;18.73;18.58;17.83;14.38;0.68
78734;SPS30;68057;52.126;5.426;2023-09-19T03:40:11;4.14;3.86;3.30;2.49;19.93;19.89;19.74;18.97;15.35;0.66
78734;SPS30;68057;52.126;5.426;2023-09-19T03:42:42;4.08;3.84;3.34;2.58;20.70;20.66;20.53;19.82;16.21;0.64
78734;SPS30;68057;52.126;5.426;2023-09-19T03:45:09;3.66;3.45;3.03;2.38;19.06;19.03;18.91;18.31;15.05;0.65
78734;SPS30;68057;52.126;5.426;2023-09-19T03:47:39;4.23;3.95;3.38;2.55;20.46;20.42;20.26;19.48;15.78;0.68
78734;SPS30;68057;52.126;5.426;2023-09-19T03:50:07;4.63;4.29;3.58;2.58;20.66;20.61;20.42;19.46;15.47;0.73
78734;SPS30;68057;52.126;5.426;2023-09-19T03:52:37;5.20;4.77;3.90;2.69;21.60;21.54;21.30;20.14;15.72;0.76
78734;SPS30;68057;52.126;5.426;2023-09-19T03:55:04;4.86;4.45;3.61;2.46;19.78;19.72;19.50;18.38;14.27;0.77
78734;SPS30;68057;52.126;5.426;2023-09-19T03:57:30;4.87;4.46;3.63;2.48;19.93;19.88;19.65;18.54;14.42;0.75
78734;SPS30;68057;52.126;5.426;2023-09-19T03:59:58;4.67;4.29;3.52;2.45;19.67;19.62;19.41;18.37;14.40;0.74
78734;SPS30;68057;52.126;5.426;2023-09-19T04:02:25;4.51;4.15;3.42;2.39;19.21;19.17;18.97;17.98;14.13;0.75
78734;SPS30;68057;52.126;5.426;2023-09-19T04:04:51;4.40;4.06;3.36;2.39;19.18;19.13;18.94;18.01;14.24;0.75
78734;SPS30;68057;52.126;5.426;2023-09-19T04:07:18;4.79;4.43;3.71;2.69;21.58;21.53;21.34;20.36;16.23;0.73
78734;SPS30;68057;52.126;5.426;2023-09-19T04:09:49;4.27;3.98;3.37;2.50;20.06;20.02;19.85;19.02;15.31;0.71
78734;SPS30;68057;52.126;5.426;2023-09-19T04:12:15;4.05;3.78;3.22;2.41;19.30;19.27;19.11;18.35;14.81;0.69
78734;SPS30;68057;52.126;5.426;2023-09-19T04:14:45;4.16;3.85;3.21;2.30;18.46;18.42;18.24;17.37;13.80;0.72
78734;SPS30;68057;52.126;5.426;2023-09-19T04:17:11;5.16;4.73;3.86;2.65;21.28;21.22;20.99;19.82;15.45;0.75
78734;SPS30;68057;52.126;5.426;2023-09-19T04:19:38;4.62;4.26;3.53;2.50;20.06;20.02;19.82;18.83;14.88;0.73
78734;SPS30;68057;52.126;5.426;2023-09-19T04:22:05;4.32;3.99;3.33;2.39;19.15;19.11;18.93;18.03;14.31;0.73
78734;SPS30;68057;52.126;5.426;2023-09-19T04:24:32;4.59;4.26;3.57;2.60;20.87;20.82;20.64;19.71;15.74;0.72
78734;SPS30;68057;52.126;5.426;2023-09-19T04:26:59;4.33;4.03;3.41;2.53;20.30;20.26;20.09;19.25;15.49;0.70
78734;SPS30;68057;52.126;5.426;2023-09-19T04:29:25;4.35;4.04;3.41;2.50;20.07;20.03;19.86;19.00;15.23;0.71
78734;SPS30;68057;52.126;5.426;2023-09-19T04:31:56;4.54;4.19;3.47;2.46;19.77;19.73;19.53;18.56;14.67;0.74
78734;SPS30;68057;52.126;5.426;2023-09-19T04:34:26;4.52;4.19;3.50;2.52;20.22;20.18;19.99;19.06;15.17;0.72
78734;SPS30;68057;52.126;5.426;2023-09-19T04:36:53;4.11;3.83;3.26;2.43;19.46;19.42;19.26;18.47;14.89;0.70
78734;SPS30;68057;52.126;5.426;2023-09-19T04:39:20;4.13;3.86;3.31;2.50;20.05;20.01;19.86;19.11;15.49;0.68
78734;SPS30;68057;52.126;5.426;2023-09-19T04:41:47;4.37;4.09;3.52;2.68;21.48;21.45;21.29;20.50;16.66;0.68
78734;SPS30;68057;52.126;5.426;2023-09-19T04:44:14;4.07;3.80;3.27;2.48;19.84;19.81;19.66;18.92;15.35;0.69
78734;SPS30;68057;52.126;5.426;2023-09-19T04:46:42;4.29;4.01;3.45;2.63;21.05;21.01;20.86;20.08;16.31;0.68
78734;SPS30;68057;52.126;5.426;2023-09-19T04:49:09;4.36;4.04;3.40;2.48;19.90;19.86;19.68;18.81;15.04;0.71
78734;SPS30;68057;52.126;5.426;2023-09-19T04:51:35;4.73;4.36;3.59;2.52;20.26;20.21;20.00;18.98;14.94;0.73
78734;SPS30;68057;52.126;5.426;2023-09-19T04:54:03;4.68;4.32;3.57;2.52;20.24;20.20;19.99;18.99;14.98;0.73
78734;SPS30;68057;52.126;5.426;2023-09-19T04:56:30;4.69;4.35;3.65;2.66;21.35;21.31;21.12;20.17;16.12;0.71
78734;SPS30;68057;52.126;5.426;2023-09-19T04:58:58;4.29;3.97;3.31;2.38;19.06;19.02;18.84;17.95;14.26;0.72
78734;SPS30;68057;52.126;5.426;2023-09-19T05:01:26;4.99;4.58;3.73;2.55;20.50;20.45;20.22;19.08;14.86;0.74
78734;SPS30;68057;52.126;5.426;2023-09-19T05:03:53;4.69;4.32;3.58;2.53;20.34;20.29;20.09;19.09;15.07;0.72
78734;SPS30;68057;52.126;5.426;2023-09-19T05:06:20;4.84;4.52;3.87;2.92;23.38;23.34;23.16;22.27;18.03;0.69
78734;SPS30;68057;52.126;5.426;2023-09-19T05:08:50;3.94;3.69;3.20;2.46;19.71;19.67;19.54;18.85;15.37;0.67
78734;SPS30;68057;52.126;5.426;2023-09-19T05:11:18;3.86;3.63;3.17;2.47;19.76;19.73;19.60;18.95;15.53;0.67
78734;SPS30;68057;52.126;5.426;2023-09-19T05:13:49;4.11;3.87;3.38;2.64;21.16;21.12;20.99;20.30;16.65;0.66
78734;SPS30;68057;52.126;5.426;2023-09-19T05:16:16;4.39;4.11;3.52;2.65;21.24;21.20;21.04;20.23;16.38;0.68
78734;SPS30;68057;52.126;5.426;2023-09-19T05:18:43;4.65;4.30;3.58;2.57;20.63;20.58;20.39;19.42;15.42;0.71
78734;SPS30;68057;52.126;5.426;2023-09-19T05:21:10;3.97;3.70;3.17;2.38;19.05;19.02;18.87;18.13;14.66;0.68
78734;SPS30;68057;52.126;5.426;2023-09-19T05:23:37;4.22;3.94;3.38;2.56;20.48;20.45;20.29;19.51;15.82;0.68
78734;SPS30;68057;52.126;5.426;2023-09-19T05:26:04;4.25;3.98;3.42;2.60;20.85;20.81;20.66;19.89;16.15;0.67
78734;SPS30;68057;52.126;5.426;2023-09-19T05:28:31;3.85;3.62;3.13;2.41;19.32;19.29;19.15;18.48;15.08;0.66
78734;SPS30;68057;52.126;5.426;2023-09-19T05:31:01;4.31;4.06;3.55;2.77;22.22;22.18;22.04;21.32;17.49;0.65
78734;SPS30;68057;52.126;5.426;2023-09-19T05:33:31;3.98;3.75;3.28;2.55;20.46;20.43;20.30;19.63;16.10;0.65
78734;SPS30;68057;52.126;5.426;2023-09-19T05:35:59;3.97;3.74;3.26;2.54;20.34;20.30;20.17;19.50;15.98;0.66
78734;SPS30;68057;52.126;5.426;2023-09-19T05:38:26;4.00;3.78;3.32;2.62;21.00;20.97;20.84;20.20;16.63;0.65
78734;SPS30;68057;52.126;5.426;2023-09-19T05:40:54;3.72;3.49;3.02;2.31;18.53;18.50;18.37;17.71;14.43;0.66
78734;SPS30;68057;52.126;5.426;2023-09-19T05:43:21;3.80;3.54;3.02;2.25;18.07;18.04;17.89;17.17;13.86;0.68
78734;SPS30;68057;52.126;5.426;2023-09-19T05:45:48;4.60;4.26;3.56;2.57;20.64;20.59;20.40;19.45;15.49;0.72
78734;SPS30;68057;52.126;5.426;2023-09-19T05:48:15;4.66;4.30;3.57;2.54;20.35;20.30;20.10;19.11;15.12;0.73
78734;SPS30;68057;52.126;5.426;2023-09-19T05:50:43;4.37;4.03;3.35;2.38;19.08;19.04;18.85;17.92;14.17;0.71
78734;SPS30;68057;52.126;5.426;2023-09-19T05:53:13;4.95;4.56;3.75;2.62;21.05;21.00;20.78;19.69;15.47;0.74
78734;SPS30;68057;52.126;5.426;2023-09-19T05:55:41;4.98;4.58;3.77;2.64;21.21;21.16;20.94;19.85;15.60;0.76
78734;SPS30;68057;52.126;5.426;2023-09-19T05:58:08;4.93;4.52;3.69;2.54;20.43;20.38;20.15;19.04;14.86;0.77
78734;SPS30;68057;52.126;5.426;2023-09-19T06:00:36;4.80;4.45;3.75;2.74;21.97;21.93;21.74;20.78;16.62;0.72
78734;SPS30;68057;52.126;5.426;2023-09-19T06:03:05;4.26;3.95;3.31;2.40;19.25;19.21;19.04;18.17;14.49;0.71
78734;SPS30;68057;52.126;5.426;2023-09-19T06:05:32;4.42;4.07;3.35;2.35;18.86;18.82;18.62;17.66;13.88;0.74
78734;SPS30;68057;52.126;5.426;2023-09-19T06:07:58;5.49;5.00;4.02;2.68;21.50;21.44;21.17;19.86;15.25;0.77
78734;SPS30;68057;52.126;5.426;2023-09-19T06:10:27;5.12;4.66;3.72;2.45;19.67;19.62;19.36;18.12;13.84;0.77
78734;SPS30;68057;52.126;5.426;2023-09-19T06:12:54;5.39;4.92;3.97;2.67;21.42;21.36;21.10;19.83;15.30;0.77
78734;SPS30;68057;52.126;5.426;2023-09-19T06:15:25;4.80;4.45;3.74;2.72;21.78;21.73;21.54;20.56;16.42;0.71
78734;SPS30;68057;52.126;5.426;2023-09-19T06:17:53;4.75;4.41;3.72;2.72;21.78;21.74;21.55;20.59;16.48;0.71
78734;SPS30;68057;52.126;5.426;2023-09-19T06:20:22;4.04;3.76;3.19;2.37;19.03;18.99;18.83;18.06;14.54;0.70
78734;SPS30;68057;52.126;5.426;2023-09-19T06:22:50;4.56;4.25;3.64;2.73;21.89;21.85;21.68;20.83;16.85;0.71
78734;SPS30;68057;52.126;5.426;2023-09-19T06:25:18;4.40;4.09;3.46;2.55;20.48;20.44;20.27;19.41;15.58;0.72
78734;SPS30;68057;52.126;5.426;2023-09-19T06:27:49;4.18;3.88;3.27;2.40;19.24;19.20;19.03;18.20;14.58;0.73
78734;SPS30;68057;52.126;5.426;2023-09-19T06:30:23;4.74;4.38;3.63;2.58;20.68;20.63;20.43;19.42;15.36;0.76
78734;SPS30;68057;52.126;5.426;2023-09-19T06:32:55;4.64;4.25;3.47;2.38;19.13;19.08;18.87;17.82;13.89;0.78
78734;SPS30;68057;52.126;5.426;2023-09-19T06:35:23;5.18;4.73;3.82;2.57;20.65;20.60;20.35;19.14;14.78;0.77
78734;SPS30;68057;52.126;5.426;2023-09-19T06:37:52;4.83;4.43;3.61;2.48;19.91;19.85;19.63;18.54;14.44;0.74
78734;SPS30;68057;52.126;5.426;2023-09-19T06:40:19;4.99;4.55;3.65;2.43;19.50;19.44;19.20;18.01;13.82;0.76
78734;SPS30;68057;52.126;5.426;2023-09-19T06:42:47;4.44;4.07;3.31;2.26;18.14;18.09;17.88;16.87;13.11;0.74
78734;SPS30;68057;52.126;5.426;2023-09-19T06:45:17;4.53;4.19;3.50;2.51;20.15;20.11;19.92;18.97;15.07;0.71
78734;SPS30;68057;52.126;5.426;2023-09-19T06:47:45;4.99;4.59;3.77;2.62;21.06;21.01;20.79;19.69;15.44;0.73
78734;SPS30;68057;52.126;5.426;2023-09-19T06:50:25;4.51;4.16;3.46;2.47;19.79;19.75;19.56;18.60;14.74;0.70
78734;SPS30;68057;52.126;5.426;2023-09-19T06:52:53;4.01;3.72;3.13;2.28;18.30;18.26;18.10;17.29;13.82;0.70
78734;SPS30;68057;52.126;5.426;2023-09-19T06:55:22;4.16;3.85;3.23;2.34;18.80;18.76;18.59;17.74;14.15;0.72
78734;SPS30;68057;52.126;5.426;2023-09-19T06:57:54;4.49;4.18;3.55;2.63;21.10;21.06;20.89;20.02;16.12;0.70
78734;SPS30;68057;52.126;5.426;2023-09-19T07:00:21;4.14;3.83;3.21;2.32;18.63;18.59;18.42;17.58;14.01;0.71
78734;SPS30;68057;52.126;5.426;2023-09-19T07:02:55;5.21;4.77;3.87;2.62;21.06;21.01;20.76;19.56;15.15;0.74
78734;SPS30;68057;52.126;5.426;2023-09-19T07:05:27;4.56;4.17;3.38;2.30;18.48;18.43;18.21;17.16;13.31;0.74
78734;SPS30;68057;52.126;5.426;2023-09-19T07:07:54;5.15;4.72;3.84;2.63;21.10;21.04;20.80;19.62;15.26;0.75
78734;SPS30;68057;52.126;5.426;2023-09-19T07:10:22;4.86;4.47;3.66;2.53;20.32;20.27;20.05;18.96;14.83;0.75
78734;SPS30;68057;52.126;5.426;2023-09-19T07:13:00;5.04;4.62;3.76;2.58;20.74;20.69;20.46;19.31;15.05;0.74
78734;SPS30;68057;52.126;5.426;2023-09-19T07:15:29;5.27;4.80;3.84;2.54;20.40;20.34;20.08;18.81;14.39;0.77
78734;SPS30;68057;52.126;5.426;2023-09-19T07:18:00;5.68;5.20;4.23;2.89;23.17;23.11;22.85;21.55;16.74;0.75
78734;SPS30;68057;52.126;5.426;2023-09-19T07:20:27;4.77;4.40;3.65;2.59;20.77;20.72;20.52;19.50;15.42;0.72
78734;SPS30;68057;52.126;5.426;2023-09-19T07:22:58;4.38;4.04;3.35;2.38;19.07;19.03;18.84;17.90;14.15;0.72
78734;SPS30;68057;52.126;5.426;2023-09-19T07:25:28;4.96;4.54;3.68;2.50;20.08;20.02;19.79;18.64;14.45;0.77
78734;SPS30;68057;52.126;5.426;2023-09-19T07:27:56;4.77;4.38;3.59;2.48;19.93;19.88;19.66;18.60;14.54;0.76
78734;SPS30;68057;52.126;5.426;2023-09-19T07:30:26;4.85;4.45;3.63;2.49;20.03;19.97;19.75;18.65;14.54;0.76
78734;SPS30;68057;52.126;5.426;2023-09-19T07:32:55;5.14;4.70;3.79;2.55;20.45;20.39;20.15;18.94;14.61;0.78
78734;SPS30;68057;52.126;5.426;2023-09-19T07:35:21;4.89;4.45;3.55;2.34;18.77;18.72;18.47;17.28;13.19;0.78
78734;SPS30;68057;52.126;5.426;2023-09-19T07:37:49;4.72;4.30;3.45;2.29;18.43;18.38;18.15;17.02;13.06;0.77
78734;SPS30;68057;52.126;5.426;2023-09-19T07:40:18;4.54;4.13;3.30;2.17;17.41;17.35;17.13;16.03;12.23;0.77
78734;SPS30;68057;52.126;5.426;2023-09-19T07:42:47;4.88;4.45;3.56;2.35;18.89;18.84;18.60;17.42;13.33;0.77
78734;SPS30;68057;52.126;5.426;2023-09-19T07:45:13;4.97;4.55;3.67;2.47;19.84;19.78;19.54;18.38;14.19;0.76
78734;SPS30;68057;52.126;5.426;2023-09-19T07:47:47;4.48;4.09;3.28;2.19;17.59;17.54;17.32;16.25;12.49;0.76
78734;SPS30;68057;52.126;5.426;2023-09-19T07:50:16;5.15;4.68;3.73;2.43;19.55;19.49;19.23;17.97;13.67;0.77
78734;SPS30;68057;52.126;5.426;2023-09-19T07:52:47;4.88;4.44;3.55;2.33;18.72;18.66;18.42;17.23;13.15;0.79
78734;SPS30;68057;52.126;5.426;2023-09-19T07:55:17;5.50;5.00;3.97;2.57;20.68;20.62;20.34;18.97;14.39;0.81
78734;SPS30;68057;52.126;5.426;2023-09-19T07:57:46;5.70;5.15;4.02;2.52;20.28;20.21;19.91;18.43;13.73;0.82
78734;SPS30;68057;52.126;5.426;2023-09-19T08:00:13;5.39;4.91;3.93;2.59;20.84;20.78;20.52;19.22;14.71;0.77
78734;SPS30;68057;52.126;5.426;2023-09-19T08:02:42;4.81;4.40;3.55;2.39;19.19;19.14;18.91;17.78;13.73;0.76
78734;SPS30;68057;52.126;5.426;2023-09-19T08:05:12;4.91;4.47;3.57;2.36;18.96;18.90;18.66;17.48;13.37;0.78
78734;SPS30;68057;52.126;5.426;2023-09-19T08:07:44;5.29;4.83;3.89;2.60;20.85;20.79;20.54;19.28;14.84;0.76
78734;SPS30;68057;52.126;5.426;2023-09-19T08:10:15;5.33;4.88;3.96;2.69;21.64;21.58;21.33;20.10;15.60;0.75
78734;SPS30;68057;52.126;5.426;2023-09-19T08:12:45;5.12;4.67;3.73;2.47;19.82;19.76;19.51;18.27;13.98;0.79
78734;SPS30;68057;52.126;5.426;2023-09-19T08:15:18;4.70;4.29;3.43;2.27;18.26;18.21;17.98;16.85;12.90;0.79
78734;SPS30;68057;52.126;5.426;2023-09-19T08:17:47;5.65;5.15;4.13;2.75;22.08;22.01;21.74;20.38;15.64;0.78
78734;SPS30;68057;52.126;5.426;2023-09-19T08:20:15;5.42;4.95;3.98;2.67;21.41;21.35;21.09;19.81;15.25;0.78
78734;SPS30;68057;52.126;5.426;2023-09-19T08:22:46;5.18;4.72;3.79;2.53;20.29;20.24;19.98;18.75;14.40;0.77
78734;SPS30;68057;52.126;5.426;2023-09-19T08:25:19;5.16;4.71;3.80;2.55;20.46;20.40;20.16;18.94;14.60;0.75
78734;SPS30;68057;52.126;5.426;2023-09-19T08:27:46;4.84;4.42;3.55;2.36;18.96;18.90;18.67;17.51;13.45;0.75
78734;SPS30;68057;52.126;5.426;2023-09-19T08:30:16;5.15;4.71;3.80;2.56;20.59;20.53;20.28;19.08;14.74;0.76
78734;SPS30;68057;52.126;5.426;2023-09-19T08:32:44;5.54;5.04;4.03;2.66;21.36;21.30;21.02;19.68;15.05;0.78
78734;SPS30;68057;52.126;5.426;2023-09-19T08:35:12;5.87;5.36;4.31;2.87;23.09;23.03;22.74;21.35;16.41;0.77
78734;SPS30;68057;52.126;5.426;2023-09-19T08:37:39;5.36;4.90;3.97;2.70;21.67;21.61;21.36;20.12;15.59;0.76
78734;SPS30;68057;52.126;5.426;2023-09-19T08:40:06;4.81;4.41;3.59;2.46;19.77;19.72;19.50;18.41;14.34;0.75
78734;SPS30;68057;52.126;5.426;2023-09-19T08:45:16;4.65;4.24;3.41;2.27;18.22;18.17;17.94;16.84;12.93;0.78
78734;SPS30;68057;52.126;5.426;2023-09-19T08:48:00;5.16;4.71;3.80;2.55;20.49;20.43;20.19;18.97;14.63;0.76
78734;SPS30;68057;52.126;5.426;2023-09-19T08:50:39;5.37;4.89;3.91;2.59;20.79;20.73;20.46;19.17;14.67;0.78
78734;SPS30;68057;52.126;5.426;2023-09-19T08:53:15;5.77;5.23;4.14;2.66;21.39;21.33;21.03;19.58;14.79;0.80
78734;SPS30;68057;52.126;5.426;2023-09-19T08:55:53;5.43;4.94;3.95;2.61;21.00;20.93;20.67;19.36;14.81;0.77
78734;SPS30;68057;52.126;5.426;2023-09-19T08:58:25;5.33;4.85;3.88;2.55;20.49;20.43;20.16;18.87;14.41;0.76
78734;SPS30;68057;52.126;5.426;2023-09-19T09:00:57;5.23;4.77;3.84;2.57;20.66;20.60;20.35;19.11;14.71;0.75
78734;SPS30;68057;52.126;5.426;2023-09-19T09:03:24;5.81;5.30;4.25;2.83;22.74;22.67;22.39;21.00;16.13;0.76
78734;SPS30;68057;52.126;5.426;2023-09-19T09:05:52;5.82;5.30;4.23;2.78;22.33;22.26;21.97;20.55;15.68;0.78
78734;SPS30;68057;52.126;5.426;2023-09-19T09:08:19;5.62;5.11;4.06;2.64;21.22;21.16;20.87;19.48;14.79;0.78
78734;SPS30;68057;52.126;5.426;2023-09-19T09:10:48;5.14;4.67;3.73;2.44;19.61;19.55;19.30;18.04;13.75;0.77
78734;SPS30;68057;52.126;5.426;2023-09-19T09:13:16;5.51;5.01;3.99;2.61;20.97;20.91;20.63;19.28;14.68;0.77
78734;SPS30;68057;52.126;5.426;2023-09-19T09:15:44;5.48;4.97;3.93;2.54;20.42;20.35;20.07;18.71;14.15;0.80
78734;SPS30;68057;52.126;5.426;2023-09-19T09:18:11;5.70;5.15;4.03;2.53;20.38;20.31;20.00;18.53;13.82;0.79
78734;SPS30;68057;52.126;5.426;2023-09-19T09:20:38;5.61;5.07;3.98;2.52;20.27;20.20;19.90;18.47;13.83;0.79
78734;SPS30;68057;52.126;5.426;2023-09-19T09:23:05;4.95;4.51;3.60;2.36;18.97;18.91;18.67;17.46;13.32;0.76
78734;SPS30;68057;52.126;5.426;2023-09-19T09:25:48;4.74;4.32;3.48;2.33;18.69;18.64;18.41;17.29;13.30;0.76
78734;SPS30;68057;52.126;5.426;2023-09-19T09:28:24;5.17;4.71;3.79;2.53;20.31;20.25;20.00;18.77;14.43;0.76
78734;SPS30;68057;52.126;5.426;2023-09-19T09:30:53;4.51;4.11;3.30;2.20;17.69;17.64;17.42;16.35;12.56;0.78
78734;SPS30;68057;52.126;5.426;2023-09-19T09:33:20;5.37;4.88;3.87;2.52;20.24;20.18;19.91;18.58;14.11;0.79
78734;SPS30;68057;52.126;5.426;2023-09-19T09:35:52;4.73;4.30;3.44;2.26;18.20;18.15;17.91;16.77;12.81;0.77